Time;durP1;ratioP1;P1;durP2;ratioP2;P2;SDS_P1;SDS_P2;PMS_P1;PMS_P2;Temp;Humidity;BMP_temperature;BMP_pressure;BME280_temperature;BME280_humidity;BME280_pressure;Samples;Min_cycle;Max_cycle;Signal;HPM_P1;HPM_P2
2023/09/30 00:00:43;;;;;;;8.02;3.95;;;;;;;23.65;40.41;99907.59;5053590;28;20045;-47
2023/09/30 00:03:11;;;;;;;7.72;3.70;;;;;;;23.60;40.11;99906.50;5053375;28;20476;-46
2023/09/30 00:05:37;;;;;;;8.10;3.80;;;;;;;23.60;40.62;99909.22;5053079;28;20453;-44
2023/09/30 00:08:06;;;;;;;6.72;4.10;;;;;;;23.74;39.92;99911.28;5053476;28;20055;-44
2023/09/30 00:10:32;;;;;;;;;;;;;;;23.90;39.98;99917.41;5053461;28;20120;-45
2023/09/30 00:12:58;;;;;;;7.30;3.72;;;;;;;23.78;40.00;99905.03;5053468;28;19991;-43
2023/09/30 00:15:24;;;;;;;4.97;3.67;;;;;;;23.80;39.81;99905.53;5053460;28;20063;-43
2023/09/30 00:17:49;;;;;;;6.93;4.20;;;;;;;23.55;41.30;99905.75;5053482;28;20048;-43
2023/09/30 00:20:15;;;;;;;6.93;3.70;;;;;;;23.40;40.62;99904.00;5053144;28;20550;-42
2023/09/30 00:22:41;;;;;;;6.65;3.63;;;;;;;22.99;41.40;99888.81;5053121;28;20021;-45
2023/09/30 00:25:07;;;;;;;7.40;4.03;;;;;;;23.10;41.95;99902.34;5053092;28;20512;-46
2023/09/30 00:27:32;;;;;;;6.78;3.85;;;;;;;23.30;41.13;99901.34;5052658;28;20108;-46
2023/09/30 00:29:58;;;;;;;7.43;3.63;;;;;;;23.42;41.97;99899.91;5053073;28;20504;-42
2023/09/30 00:32:23;;;;;;;8.13;4.03;;;;;;;23.35;41.21;99902.13;5053010;28;20020;-47
2023/09/30 00:34:49;;;;;;;6.30;4.00;;;;;;;23.52;41.63;99895.47;5052717;28;20096;-45
2023/09/30 00:37:14;;;;;;;6.45;3.75;;;;;;;23.60;40.41;99900.28;5052844;28;20325;-43
2023/09/30 00:39:39;;;;;;;7.47;3.78;;;;;;;23.62;40.43;99898.88;5052784;28;20408;-47
2023/09/30 00:42:05;;;;;;;7.85;3.85;;;;;;;23.72;40.76;99895.28;5052801;28;20064;-44
2023/09/30 00:44:31;;;;;;;7.95;3.90;;;;;;;23.72;41.00;99900.72;5052726;28;20063;-42
2023/09/30 00:46:56;;;;;;;10.60;4.55;;;;;;;23.48;40.50;99891.72;5052573;28;20028;-46
2023/09/30 00:49:24;;;;;;;6.88;3.83;;;;;;;23.35;40.70;99872.25;5052872;28;20017;-47
2023/09/30 00:51:49;;;;;;;9.90;3.90;;;;;;;23.54;40.53;99902.22;5052244;28;20040;-43
2023/09/30 00:54:16;;;;;;;6.45;3.90;;;;;;;23.65;40.35;99899.44;5052596;28;20071;-41
2023/09/30 00:56:48;;;;;;;6.95;3.67;;;;;;;23.51;40.01;99897.34;5052002;28;20024;-46
2023/09/30 00:59:14;;;;;;;7.25;4.07;;;;;;;23.33;41.40;99904.31;5052351;28;20092;-44
2023/09/30 01:01:44;;;;;;;6.60;4.10;;;;;;;23.31;40.82;99900.28;5052241;28;20393;-44
2023/09/30 01:04:09;;;;;;;;;;;;;;;23.10;41.23;99900.44;5052944;28;20029;-44
2023/09/30 01:06:35;;;;;;;6.68;3.97;;;;;;;23.16;41.17;99904.72;5052127;28;19909;-42
2023/09/30 01:09:01;;;;;;;9.00;3.85;;;;;;;23.18;41.73;99899.81;5052763;28;20075;-42
2023/09/30 01:11:26;;;;;;;10.90;4.22;;;;;;;23.11;41.23;99904.75;5052475;28;20024;-45
2023/09/30 01:13:51;;;;;;;6.68;4.20;;;;;;;22.88;41.79;99903.53;5052209;28;20420;-44
2023/09/30 01:16:17;;;;;;;6.40;4.20;;;;;;;23.03;41.28;99895.31;5052022;28;20396;-44
2023/09/30 01:18:42;;;;;;;9.95;4.10;;;;;;;23.13;41.42;99899.88;5051760;28;20056;-44
2023/09/30 01:21:09;;;;;;;9.75;4.25;;;;;;;23.11;41.12;99902.03;5051899;28;20064;-45
2023/09/30 01:23:35;;;;;;;6.53;4.25;;;;;;;23.00;42.09;99909.44;5051936;28;20462;-45
2023/09/30 01:26:06;;;;;;;8.68;3.97;;;;;;;23.22;40.89;99906.28;5052232;28;20112;-43
2023/09/30 01:28:32;;;;;;;6.70;4.18;;;;;;;23.17;41.06;99905.53;5052085;28;20111;-45
2023/09/30 01:30:58;;;;;;;8.75;4.00;;;;;;;23.16;41.02;99890.34;5051848;28;20219;-46
2023/09/30 01:33:23;;;;;;;11.50;4.30;;;;;;;23.22;41.08;99900.88;5051775;28;20025;-44
2023/09/30 01:35:49;;;;;;;8.05;4.13;;;;;;;23.31;41.28;99903.78;5051914;28;20045;-43
2023/09/30 01:38:14;;;;;;;7.22;4.20;;;;;;;23.09;41.27;99904.22;5051638;28;20396;-44
2023/09/30 01:40:40;;;;;;;6.88;3.92;;;;;;;22.95;41.50;99908.66;5051111;28;20460;-45
2023/09/30 01:43:05;;;;;;;9.88;4.47;;;;;;;22.83;41.33;99909.00;5051585;28;20083;-46
2023/09/30 01:45:31;;;;;;;8.98;4.38;;;;;;;22.82;41.29;99901.94;5042071;28;20580;-44
2023/09/30 01:47:56;;;;;;;7.15;4.25;;;;;;;22.96;42.18;99902.13;5040067;28;20048;-43
2023/09/30 01:50:21;;;;;;;5.47;3.60;;;;;;;22.96;41.26;99902.94;5031627;28;20044;-47
2023/09/30 01:52:47;;;;;;;7.35;3.60;;;;;;;23.05;41.51;99908.59;5047232;28;20021;-43
2023/09/30 01:55:12;;;;;;;9.70;4.05;;;;;;;23.03;41.19;99903.44;5051655;28;20040;-42
2023/09/30 01:57:38;;;;;;;7.22;4.20;;;;;;;22.96;41.73;99904.84;5051638;28;20032;-47
2023/09/30 02:00:04;;;;;;;7.30;4.00;;;;;;;22.77;41.46;99896.53;5051206;28;20072;-40
2023/09/30 02:02:31;;;;;;;8.98;4.32;;;;;;;22.79;41.47;99888.94;5051414;28;20103;-45
2023/09/30 02:04:57;;;;;;;8.20;3.97;;;;;;;22.90;41.13;99895.91;5051244;28;20029;-46
2023/09/30 02:07:22;;;;;;;6.45;4.25;;;;;;;22.97;41.08;99899.13;5051265;28;20025;-45
2023/09/30 02:09:48;;;;;;;8.05;3.80;;;;;;;22.92;41.37;99899.16;5051356;28;20048;-42
2023/09/30 02:12:14;;;;;;;6.93;4.05;;;;;;;22.95;41.05;99906.75;5051532;28;20033;-44
2023/09/30 02:14:39;;;;;;;6.88;3.92;;;;;;;22.98;41.13;99899.94;5051388;28;20025;-41
2023/09/30 02:17:05;;;;;;;8.05;4.10;;;;;;;23.07;41.06;99902.91;5051254;28;20127;-47
2023/09/30 02:19:33;;;;;;;6.88;4.03;;;;;;;23.01;41.00;99899.38;5051125;28;20118;-47
2023/09/30 02:21:59;;;;;;;6.13;4.10;;;;;;;23.03;41.39;99903.44;5051412;28;20025;-46
2023/09/30 02:24:25;;;;;;;7.28;3.88;;;;;;;23.11;41.15;99906.66;5051192;28;20028;-45
2023/09/30 02:26:50;;;;;;;8.43;4.20;;;;;;;23.14;41.73;99906.91;5050843;28;20353;-44
2023/09/30 02:29:16;;;;;;;7.13;4.15;;;;;;;23.13;41.84;99901.75;5051020;28;20314;-47
2023/09/30 02:31:41;;;;;;;6.72;3.90;;;;;;;23.12;41.45;99894.72;5051172;28;20103;-48
2023/09/30 02:34:08;;;;;;;6.93;4.07;;;;;;;23.08;41.29;99891.75;5051348;28;20109;-46
2023/09/30 02:36:36;;;;;;;6.25;4.00;;;;;;;23.03;41.55;99897.22;5050872;28;20483;-45
2023/09/30 02:39:01;;;;;;;6.90;4.20;;;;;;;23.10;41.70;99902.34;5051320;28;20036;-45
2023/09/30 02:41:26;;;;;;;6.13;3.88;;;;;;;23.02;41.54;99892.88;5050973;28;20108;-45
2023/09/30 02:43:52;;;;;;;8.40;3.92;;;;;;;23.08;41.63;99896.38;5050936;28;20311;-44
2023/09/30 02:46:17;;;;;;;6.50;4.18;;;;;;;22.90;42.69;99893.19;5051041;28;20021;-47
2023/09/30 02:48:43;;;;;;;10.05;3.90;;;;;;;22.92;42.76;99898.34;5050700;28;20114;-44
2023/09/30 02:51:11;;;;;;;10.35;3.90;;;;;;;22.81;41.79;99889.50;5051243;28;20024;-45
2023/09/30 02:53:37;;;;;;;5.68;3.97;;;;;;;22.64;41.70;99889.84;5053556;28;20075;-43
2023/09/30 02:56:04;;;;;;;6.82;4.03;;;;;;;22.74;41.65;99897.94;5054901;28;20033;-46
2023/09/30 02:58:30;;;;;;;9.23;4.40;;;;;;;22.67;42.26;99893.91;5054929;28;20035;-48
2023/09/30 03:00:56;;;;;;;7.13;4.15;;;;;;;22.60;42.31;99888.81;5054519;28;20048;-42
2023/09/30 03:03:21;;;;;;;11.35;4.30;;;;;;;22.53;42.53;99880.16;5054501;28;20534;-42
2023/09/30 03:05:48;;;;;;;8.90;4.10;;;;;;;22.48;42.58;99864.72;5055114;28;20479;-42
2023/09/30 03:08:14;;;;;;;8.65;4.28;;;;;;;22.64;41.86;99887.16;5054545;28;20021;-42
2023/09/30 03:10:40;;;;;;;8.23;4.10;;;;;;;22.51;42.39;99882.34;5054499;28;20515;-43
2023/09/30 03:13:08;;;;;;;7.28;4.07;;;;;;;22.55;42.08;99884.19;5054394;28;20032;-44
2023/09/30 03:15:35;;;;;;;8.63;4.05;;;;;;;22.55;41.58;99881.50;5054589;28;20025;-45
2023/09/30 03:18:00;;;;;;;9.70;4.18;;;;;;;22.47;43.67;99890.22;5054339;28;20485;-44
2023/09/30 03:20:26;;;;;;;5.20;4.10;;;;;;;22.46;41.96;99885.88;5054310;28;20025;-44
2023/09/30 03:22:52;;;;;;;8.95;4.63;;;;;;;22.43;41.72;99886.44;5054010;28;20025;-43
2023/09/30 03:25:20;;;;;;;11.57;4.43;;;;;;;22.44;41.67;99888.84;5054077;28;20017;-44
2023/09/30 03:27:46;;;;;;;7.28;4.30;;;;;;;22.15;42.14;99894.09;5054036;28;20391;-41
2023/09/30 03:30:13;;;;;;;7.45;4.20;;;;;;;21.69;43.59;99891.53;5053780;28;20025;-42
2023/09/30 03:32:39;;;;;;;8.35;4.10;;;;;;;21.63;43.64;99901.56;5054218;28;20017;-46
2023/09/30 03:35:19;;;;;;;7.43;4.53;;;;;;;21.28;44.26;99894.22;5054374;28;20118;-46
2023/09/30 03:37:48;;;;;;;9.82;4.28;;;;;;;21.57;43.70;99897.25;5054129;28;20029;-44
2023/09/30 03:40:14;;;;;;;12.52;4.50;;;;;;;21.24;44.49;99893.16;5053904;28;20387;-44
2023/09/30 03:42:43;;;;;;;12.60;4.20;;;;;;;21.47;44.07;99897.22;5053758;28;20131;-46
2023/09/30 03:45:10;;;;;;;6.05;4.63;;;;;;;21.51;44.15;99897.50;5053718;28;20090;-44
2023/09/30 03:47:36;;;;;;;9.43;4.55;;;;;;;21.79;43.56;99896.91;5053994;28;20044;-49
2023/09/30 03:50:03;;;;;;;8.30;4.30;;;;;;;21.96;43.93;99901.22;5053623;28;20025;-46
2023/09/30 03:52:29;;;;;;;8.05;4.40;;;;;;;22.03;43.84;99899.03;5053351;28;20024;-45
2023/09/30 03:54:55;;;;;;;7.85;4.15;;;;;;;21.97;43.46;99898.25;5053700;28;20017;-45
2023/09/30 03:57:20;;;;;;;9.77;4.75;;;;;;;21.98;43.88;99890.91;5053653;28;20021;-47
2023/09/30 03:59:46;;;;;;;8.57;4.28;;;;;;;21.73;44.39;99894.50;5053532;28;20187;-45
2023/09/30 04:02:12;;;;;;;16.13;8.48;;;;;;;21.85;43.87;99890.41;5052594;28;20406;-43
2023/09/30 04:04:38;;;;;;;22.63;14.10;;;;;;;21.93;43.72;99896.34;5053318;28;20503;-43
2023/09/30 04:07:05;;;;;;;23.98;14.00;;;;;;;21.99;43.31;99890.66;5053831;28;20075;-42
2023/09/30 04:09:31;;;;;;;14.55;7.18;;;;;;;22.01;43.79;99898.50;5053801;28;20025;-42
2023/09/30 04:11:57;;;;;;;7.45;4.90;;;;;;;21.80;43.62;99903.13;5053415;28;20025;-43
2023/09/30 04:14:23;;;;;;;10.32;4.53;;;;;;;21.64;43.25;99900.47;5053665;28;20079;-43
2023/09/30 04:16:48;;;;;;;9.52;4.85;;;;;;;21.46;44.42;99909.16;5053347;28;20024;-45
2023/09/30 04:19:14;;;;;;;8.95;4.57;;;;;;;21.47;44.75;99908.06;5053731;28;20058;-44
2023/09/30 04:21:39;;;;;;;11.93;4.50;;;;;;;21.61;43.74;99908.31;5052083;28;20013;-41
2023/09/30 04:24:06;;;;;;;9.77;4.60;;;;;;;21.44;44.08;99903.22;5053392;28;20099;-44
2023/09/30 04:26:32;;;;;;;6.47;4.50;;;;;;;21.40;44.82;99899.38;5053440;28;20040;-43
2023/09/30 04:28:57;;;;;;;7.65;4.60;;;;;;;21.45;44.86;99915.66;5053644;28;20024;-42
2023/09/30 04:31:23;;;;;;;7.78;4.55;;;;;;;21.54;45.07;99913.22;5053930;28;20095;-42
2023/09/30 04:33:52;;;;;;;7.13;4.00;;;;;;;21.43;44.03;99913.16;5052821;28;20520;-44
2023/09/30 04:36:19;;;;;;;14.00;4.55;;;;;;;21.29;45.38;99921.03;5052648;28;20668;-44
2023/09/30 04:38:44;;;;;;;33.47;20.35;;;;;;;21.24;44.49;99898.56;5052575;28;20417;-42
2023/09/30 04:41:10;;;;;;;32.83;18.80;;;;;;;21.59;44.64;99919.44;5052603;28;20083;-43
2023/09/30 04:43:38;;;;;;;13.23;7.20;;;;;;;21.60;43.41;99923.75;5052869;28;20503;-42
2023/09/30 04:46:04;;;;;;;43.60;25.27;;;;;;;21.80;43.17;99924.81;5052456;28;20044;-42
2023/09/30 04:48:29;;;;;;;10.50;5.95;;;;;;;21.65;43.01;99925.66;5052234;28;20669;-43
2023/09/30 04:50:55;;;;;;;9.05;3.78;;;;;;;21.59;42.94;99918.59;5052103;28;20373;-42
2023/09/30 04:53:20;;;;;;;10.20;4.40;;;;;;;21.50;43.59;99933.78;5052477;28;20381;-43
2023/09/30 04:55:47;;;;;;;9.32;4.60;;;;;;;21.28;44.10;99924.00;5052220;28;20037;-45
2023/09/30 04:58:13;;;;;;;7.53;4.45;;;;;;;21.44;44.11;99935.69;5052357;28;20108;-43
2023/09/30 05:00:39;;;;;;;12.32;4.03;;;;;;;21.15;43.96;99929.94;5049044;28;20132;-44
2023/09/30 05:03:05;;;;;;;8.60;3.88;;;;;;;21.26;44.27;99931.56;5051567;28;20064;-43
2023/09/30 05:05:30;;;;;;;8.20;4.05;;;;;;;21.66;43.69;99930.78;5037034;28;20044;-43
2023/09/30 05:07:57;;;;;;;8.88;4.53;;;;;;;21.78;43.56;99929.69;5039961;28;20145;-44
2023/09/30 05:10:24;;;;;;;9.20;4.20;;;;;;;22.10;42.72;99934.75;5041472;28;20104;-45
2023/09/30 05:12:49;;;;;;;28.92;14.15;;;;;;;22.37;42.08;99931.75;5051907;28;20024;-44
2023/09/30 05:15:16;;;;;;;8.07;5.30;;;;;;;22.42;42.85;99933.63;5051289;28;20021;-43
2023/09/30 05:17:45;;;;;;;7.15;4.75;;;;;;;22.75;42.30;99931.28;5051647;28;20021;-43
2023/09/30 05:20:12;;;;;;;11.38;4.03;;;;;;;22.98;41.48;99932.50;5051390;28;20506;-46
2023/09/30 05:22:40;;;;;;;14.50;8.90;;;;;;;23.37;40.95;99921.66;5051227;28;20048;-43
2023/09/30 05:25:07;;;;;;;9.75;6.22;;;;;;;23.71;39.81;99937.13;5051206;28;20100;-45
2023/09/30 05:27:32;;;;;;;5.70;4.40;;;;;;;23.74;40.30;99938.44;5051276;28;20079;-43
2023/09/30 05:29:57;;;;;;;11.18;4.50;;;;;;;23.86;38.80;99941.63;5051114;28;20028;-42
2023/09/30 05:32:23;;;;;;;7.22;5.10;;;;;;;24.00;40.02;99945.28;5051241;28;20366;-45
2023/09/30 05:34:48;;;;;;;8.90;4.30;;;;;;;24.49;40.48;99946.09;5051237;28;20021;-42
2023/09/30 05:37:14;;;;;;;10.90;4.53;;;;;;;24.56;38.72;99943.03;5050194;28;20419;-42
2023/09/30 05:39:40;;;;;;;12.00;4.35;;;;;;;25.11;37.68;99950.69;5049218;28;20471;-42
2023/09/30 05:42:06;;;;;;;10.18;4.03;;;;;;;25.50;36.70;99955.03;5046163;28;20025;-44
2023/09/30 05:44:32;;;;;;;10.52;4.22;;;;;;;25.74;36.75;99952.97;5031407;28;20021;-43
2023/09/30 05:46:59;;;;;;;12.55;6.20;;;;;;;26.29;36.59;99954.16;5031088;28;20038;-44
2023/09/30 05:49:25;;;;;;;12.77;5.03;;;;;;;26.44;35.27;99962.03;5037671;28;20485;-46
2023/09/30 05:51:50;;;;;;;11.38;5.30;;;;;;;26.78;34.31;99960.81;5050023;28;20040;-42
2023/09/30 05:54:16;;;;;;;8.90;4.82;;;;;;;26.92;34.02;99958.03;5050461;28;20028;-45
2023/09/30 05:56:44;;;;;;;9.10;4.60;;;;;;;27.06;34.05;99956.09;5050707;28;20021;-45
2023/09/30 05:59:10;;;;;;;8.45;4.70;;;;;;;26.98;34.23;99964.19;5050392;28;20029;-43
2023/09/30 06:01:35;;;;;;;8.00;4.45;;;;;;;27.28;33.79;99958.06;5050341;28;20043;-42
2023/09/30 06:04:02;;;;;;;9.10;4.60;;;;;;;27.85;32.67;99962.09;5050139;28;20021;-41
2023/09/30 06:06:30;;;;;;;10.27;4.70;;;;;;;28.09;32.45;99959.03;5049130;28;20021;-43
2023/09/30 06:08:59;;;;;;;12.43;5.88;;;;;;;28.53;31.77;99967.44;5043758;28;20033;-43
2023/09/30 06:11:28;;;;;;;11.52;4.70;;;;;;;28.66;31.03;99971.97;5050086;28;20060;-43
2023/09/30 06:14:00;;;;;;;7.47;4.70;;;;;;;29.01;31.79;99961.03;5050941;28;20385;-43
2023/09/30 06:16:27;;;;;;;12.20;5.00;;;;;;;28.93;30.89;99964.59;5050132;28;20032;-42
2023/09/30 06:18:53;;;;;;;8.68;4.63;;;;;;;29.19;30.97;99957.19;5050363;28;20040;-43
2023/09/30 06:21:20;;;;;;;10.85;5.13;;;;;;;29.39;30.54;99968.63;5031161;28;20040;-43
2023/09/30 06:23:51;;;;;;;8.15;4.72;;;;;;;29.18;30.76;99961.06;5046073;28;20025;-42
2023/09/30 06:26:17;;;;;;;7.35;5.00;;;;;;;29.56;30.46;99968.59;5049779;28;20439;-44
2023/09/30 06:28:43;;;;;;;9.57;5.88;;;;;;;29.88;29.94;99966.44;5048345;28;20025;-44
2023/09/30 06:31:08;;;;;;;9.65;6.15;;;;;;;30.11;29.77;99967.00;5048422;28;20029;-44
2023/09/30 06:33:39;;;;;;;9.65;4.30;;;;;;;29.87;29.65;99964.03;5048380;28;20469;-43
2023/09/30 06:36:13;;;;;;;11.07;5.90;;;;;;;30.22;29.10;99970.19;5047436;28;20024;-45
2023/09/30 06:38:39;;;;;;;11.50;4.75;;;;;;;29.69;30.46;99971.50;5048735;28;20025;-44
2023/09/30 06:41:05;;;;;;;10.63;4.97;;;;;;;30.11;29.64;99971.69;5048460;28;20396;-43
2023/09/30 06:43:31;;;;;;;6.70;4.30;;;;;;;30.28;29.02;99966.13;5048380;28;20029;-42
2023/09/30 06:45:57;;;;;;;12.30;4.40;;;;;;;30.74;28.36;99967.16;5048191;28;20029;-42
2023/09/30 06:48:22;;;;;;;10.30;3.88;;;;;;;31.07;28.11;99966.50;5050111;28;20021;-45
2023/09/30 06:50:49;;;;;;;9.77;4.10;;;;;;;30.83;28.18;99972.63;5050295;28;20021;-43
2023/09/30 06:53:18;;;;;;;8.95;4.28;;;;;;;30.36;28.53;99967.25;5049651;28;20103;-43
2023/09/30 06:55:45;;;;;;;11.18;4.40;;;;;;;30.91;27.37;99960.78;5049902;28;20044;-43
2023/09/30 06:58:11;;;;;;;12.45;6.28;;;;;;;30.53;27.69;99960.84;5050065;28;20036;-43
2023/09/30 07:00:42;;;;;;;9.95;4.90;;;;;;;30.46;28.12;99966.84;5049494;28;20053;-44
2023/09/30 07:03:09;;;;;;;9.20;4.00;;;;;;;30.68;27.28;99968.50;5050434;28;20025;-44
2023/09/30 07:05:36;;;;;;;5.50;4.10;;;;;;;30.36;27.87;99972.75;5050559;28;20052;-42
2023/09/30 07:08:02;;;;;;;9.60;4.00;;;;;;;30.37;27.67;99966.94;5050144;28;20025;-41
2023/09/30 07:10:29;;;;;;;7.93;3.92;;;;;;;30.08;27.92;99967.66;5050341;28;20416;-41
2023/09/30 07:12:55;;;;;;;7.32;4.70;;;;;;;29.33;29.31;99965.25;5050056;28;20100;-44
2023/09/30 07:15:20;;;;;;;61.90;35.63;;;;;;;29.91;28.08;99971.28;5049723;28;20040;-42
2023/09/30 07:17:47;;;;;;;9.70;4.55;;;;;;;30.16;28.30;99969.56;5050113;28;20029;-43
2023/09/30 07:20:13;;;;;;;7.03;4.20;;;;;;;30.39;27.55;99975.63;5049827;28;20055;-42
2023/09/30 07:22:39;;;;;;;6.07;4.05;;;;;;;30.83;27.34;99969.06;5050077;28;20040;-43
2023/09/30 07:25:04;;;;;;;9.48;3.80;;;;;;;30.45;27.63;99965.25;5049960;28;20024;-42
2023/09/30 07:27:30;;;;;;;9.57;4.05;;;;;;;30.65;26.95;99979.34;5050162;28;20052;-43
2023/09/30 07:29:55;;;;;;;10.23;4.00;;;;;;;31.44;26.20;99966.63;5049756;28;20029;-52
2023/09/30 07:32:23;;;;;;;9.75;4.22;;;;;;;31.60;25.62;99977.03;5050012;28;20469;-43
2023/09/30 07:34:49;;;;;;;9.57;3.97;;;;;;;31.35;25.92;99987.91;5049904;28;20056;-44
2023/09/30 07:37:14;;;;;;;9.75;4.80;;;;;;;31.20;26.57;99981.06;5050472;28;20470;-45
2023/09/30 07:39:40;;;;;;;9.15;4.10;;;;;;;31.37;26.00;99980.13;5053348;28;20028;-46
2023/09/30 07:42:09;;;;;;;11.77;4.00;;;;;;;31.53;26.09;99985.84;5053831;28;20027;-44
2023/09/30 07:44:37;;;;;;;8.10;4.03;;;;;;;31.80;26.15;99983.63;5053566;28;20481;-46
2023/09/30 07:47:08;;;;;;;9.10;4.00;;;;;;;31.73;25.70;99984.94;5053456;28;20037;-47
2023/09/30 07:49:34;;;;;;;9.55;4.07;;;;;;;32.12;25.52;99980.00;5053064;28;20025;-44
2023/09/30 07:51:59;;;;;;;5.40;3.80;;;;;;;31.95;25.57;99975.50;5053082;28;20378;-43
2023/09/30 07:54:24;;;;;;;11.23;4.13;;;;;;;32.49;25.22;99976.44;5053246;28;20578;-44
2023/09/30 07:56:50;;;;;;;7.07;3.75;;;;;;;32.93;24.58;99973.88;5053290;28;20036;-46
2023/09/30 07:59:15;;;;;;;8.10;4.28;;;;;;;33.61;24.58;99969.50;5052989;28;20053;-47
2023/09/30 08:01:41;;;;;;;7.43;4.10;;;;;;;33.49;24.14;99971.16;5052940;28;20536;-43
2023/09/30 08:04:06;;;;;;;8.13;4.00;;;;;;;33.55;24.48;99974.47;5052953;28;20040;-47
2023/09/30 08:06:32;;;;;;;11.25;4.18;;;;;;;33.78;23.79;99974.72;5052484;28;20068;-44
2023/09/30 08:08:58;;;;;;;9.20;4.47;;;;;;;34.21;23.22;99972.22;5053377;28;20101;-45
2023/09/30 08:11:27;;;;;;;8.90;4.63;;;;;;;33.97;23.95;99981.50;5052970;28;20473;-46
2023/09/30 08:13:53;;;;;;;8.35;4.20;;;;;;;33.45;23.71;99973.03;5053379;28;20036;-44
2023/09/30 08:16:19;;;;;;;6.35;4.22;;;;;;;33.33;24.06;99972.28;5053080;28;20028;-45
2023/09/30 08:18:44;;;;;;;10.13;4.30;;;;;;;33.07;24.07;99973.47;5052235;28;20385;-45
2023/09/30 08:21:11;;;;;;;13.00;4.18;;;;;;;33.24;24.02;99967.72;5052646;28;20029;-43
2023/09/30 08:23:36;;;;;;;7.82;4.22;;;;;;;33.59;23.50;99964.31;5052375;28;20036;-44
2023/09/30 08:26:02;;;;;;;8.07;3.85;;;;;;;33.96;23.44;99964.09;5052369;28;20025;-42
2023/09/30 08:28:27;;;;;;;21.08;12.48;;;;;;;33.79;23.62;99965.25;5052341;28;20056;-42
2023/09/30 08:30:58;;;;;;;11.13;6.72;;;;;;;33.83;23.98;99960.66;5052647;28;20108;-44
2023/09/30 08:33:24;;;;;;;9.50;4.45;;;;;;;34.09;23.02;99960.09;5052493;28;20020;-43
2023/09/30 08:35:50;;;;;;;8.38;3.75;;;;;;;34.00;22.82;99969.72;5052148;28;20067;-45
2023/09/30 08:38:15;;;;;;;11.88;4.15;;;;;;;33.89;23.40;99964.75;5052403;28;20036;-43
2023/09/30 08:40:41;;;;;;;9.63;4.43;;;;;;;34.00;22.88;99966.97;5052259;28;20455;-44
2023/09/30 08:43:11;;;;;;;7.65;4.45;;;;;;;34.06;22.65;99966.34;5051954;28;20025;-45
2023/09/30 08:45:41;;;;;;;9.75;3.80;;;;;;;34.53;22.32;99970.22;5052206;28;20059;-46
2023/09/30 08:48:07;;;;;;;7.32;3.67;;;;;;;34.94;22.23;99968.00;5051571;28;20036;-42
2023/09/30 08:50:34;;;;;;;6.88;4.00;;;;;;;35.11;22.34;99969.53;5052270;28;20021;-42
2023/09/30 08:53:03;;;;;;;8.68;3.92;;;;;;;34.22;22.20;99962.81;5051907;28;20027;-45
2023/09/30 08:55:29;;;;;;;7.57;3.70;;;;;;;34.44;22.72;99959.38;5052054;28;20580;-44
2023/09/30 08:57:55;;;;;;;7.65;3.70;;;;;;;34.47;22.04;99961.41;5051676;28;20056;-44
2023/09/30 09:00:21;;;;;;;11.27;3.83;;;;;;;34.98;22.16;99957.00;5051682;28;20079;-46
2023/09/30 09:02:46;;;;;;;11.57;4.10;;;;;;;35.20;21.77;99949.97;5051549;28;20033;-42
2023/09/30 09:05:12;;;;;;;8.68;3.58;;;;;;;34.70;20.87;99951.69;5051998;28;20405;-48
2023/09/30 09:07:38;;;;;;;8.15;3.80;;;;;;;34.36;21.84;99954.03;5051529;28;20112;-43
2023/09/30 09:10:08;;;;;;;6.80;3.80;;;;;;;34.05;22.11;99939.09;5051379;28;20025;-47
2023/09/30 09:12:36;;;;;;;5.45;3.45;;;;;;;34.83;21.44;99953.94;5051606;28;20028;-43
2023/09/30 09:15:05;;;;;;;8.18;3.83;;;;;;;34.52;21.86;99951.22;5051679;28;20024;-45
2023/09/30 09:17:44;;;;;;;13.85;7.40;;;;;;;33.81;21.64;99951.91;5051767;28;20035;-45
2023/09/30 09:20:11;;;;;;;6.75;3.65;;;;;;;33.85;22.36;99952.81;5051321;28;20061;-42
2023/09/30 09:22:43;;;;;;;11.13;3.85;;;;;;;33.69;22.49;99943.72;5050933;28;20128;-42
2023/09/30 09:25:09;;;;;;;7.43;3.50;;;;;;;33.67;22.35;99946.81;5051438;28;20120;-45
2023/09/30 09:27:35;;;;;;;7.03;3.55;;;;;;;33.54;22.62;99938.97;5051121;28;20108;-44
2023/09/30 09:30:18;;;;;;;6.20;3.70;;;;;;;33.70;22.59;99934.31;5051369;28;20035;-44
2023/09/30 09:33:04;;;;;;;7.13;3.20;;;;;;;34.48;21.77;99931.81;5051275;28;20499;-42
2023/09/30 09:35:33;;;;;;;10.70;4.00;;;;;;;34.24;21.69;99930.09;5051565;28;20024;-49
2023/09/30 09:37:59;;;;;;;9.20;3.55;;;;;;;34.20;22.11;99924.50;5051688;28;20029;-44
2023/09/30 09:40:30;;;;;;;7.78;3.90;;;;;;;34.34;21.65;99926.78;5051571;28;20112;-44
2023/09/30 09:42:57;;;;;;;7.65;3.63;;;;;;;33.80;22.04;99925.47;5050963;28;20029;-42
2023/09/30 09:45:24;;;;;;;6.20;3.53;;;;;;;33.04;22.47;99919.06;5051115;28;20076;-45
2023/09/30 09:47:51;;;;;;;8.93;3.53;;;;;;;33.79;21.60;99917.56;5050978;28;20142;-43
2023/09/30 09:50:17;;;;;;;5.50;3.40;;;;;;;33.91;21.47;99914.72;5051270;28;20108;-44
2023/09/30 09:52:45;;;;;;;6.05;3.53;;;;;;;33.85;22.12;99910.59;5050919;28;20074;-43
2023/09/30 09:55:11;;;;;;;11.13;3.72;;;;;;;33.68;22.02;99914.50;5051289;28;20408;-44
2023/09/30 09:57:38;;;;;;;7.15;3.60;;;;;;;33.58;21.48;99901.22;5050205;28;20583;-49
2023/09/30 10:00:09;;;;;;;6.30;3.50;;;;;;;33.92;20.77;99899.75;5050460;28;20053;-42
2023/09/30 10:02:36;;;;;;;8.93;4.40;;;;;;;33.17;21.63;99897.78;5051155;28;20033;-43
2023/09/30 10:05:03;;;;;;;7.80;3.78;;;;;;;32.32;21.72;99890.19;5051181;28;20025;-44
2023/09/30 10:07:34;;;;;;;6.53;4.13;;;;;;;32.76;21.86;99892.28;5051546;28;20103;-46
2023/09/30 10:10:02;;;;;;;5.18;3.63;;;;;;;32.59;21.95;99893.38;5051640;28;20032;-43
2023/09/30 10:12:35;;;;;;;7.93;3.55;;;;;;;33.20;21.60;99883.31;5050837;28;20036;-46
2023/09/30 10:15:00;;;;;;;8.40;3.70;;;;;;;33.64;20.93;99881.34;5051110;28;20033;-45
2023/09/30 10:17:57;;;;;;;6.95;3.55;;;;;;;33.77;21.03;99879.28;5050936;28;20467;-44
2023/09/30 10:20:27;;;;;;;11.88;3.70;;;;;;;34.18;20.51;99879.09;5051052;28;20035;-42
2023/09/30 10:23:42;;;;;;;8.45;3.75;;;;;;;34.11;20.88;99873.38;5050794;28;20021;-43
2023/09/30 10:26:15;;;;;;;7.78;3.80;;;;;;;34.23;20.48;99871.34;5041454;28;20044;-46
2023/09/30 10:28:49;;;;;;;11.98;4.00;;;;;;;34.80;19.71;99868.97;5050511;28;20029;-45
2023/09/30 10:31:25;;;;;;;5.93;3.53;;;;;;;34.20;19.81;99862.97;5050240;28;20028;-43
2023/09/30 10:34:00;;;;;;;9.48;3.50;;;;;;;34.99;19.51;99859.09;5050183;28;20047;-42
2023/09/30 10:36:28;;;;;;;5.28;3.67;;;;;;;35.01;19.94;99863.09;5050636;28;20078;-44
2023/09/30 10:38:54;;;;;;;5.25;3.20;;;;;;;35.10;19.43;99848.22;5050771;28;20108;-44
2023/09/30 10:41:52;;;;;;;8.07;3.53;;;;;;;35.25;19.30;99858.41;5049845;28;20464;-42
2023/09/30 10:44:26;;;;;;;6.35;3.45;;;;;;;35.35;19.13;99852.25;5026997;28;20040;-46
2023/09/30 10:46:57;;;;;;;6.75;3.70;;;;;;;34.94;18.49;99849.13;5050001;28;20408;-43
2023/09/30 10:49:22;;;;;;;6.13;3.63;;;;;;;34.78;18.41;99842.88;5050443;28;20477;-43
2023/09/30 10:51:49;;;;;;;10.98;3.50;;;;;;;34.69;19.52;99837.59;5049945;28;20017;-44
2023/09/30 10:54:31;;;;;;;8.50;3.70;;;;;;;35.19;18.63;99835.78;5050137;28;20029;-43
2023/09/30 10:57:01;;;;;;;6.72;3.50;;;;;;;35.25;19.24;99836.28;5050795;28;20029;-44
2023/09/30 10:59:30;;;;;;;8.00;4.05;;;;;;;35.37;19.38;99830.56;5051153;28;20048;-43
2023/09/30 11:01:56;;;;;;;11.50;5.32;;;;;;;35.10;18.71;99829.66;5050670;28;20397;-43
2023/09/30 11:04:21;;;;;;;9.40;4.63;;;;;;;34.37;19.38;99821.13;5050415;28;20047;-47
2023/09/30 11:06:47;;;;;;;12.88;5.03;;;;;;;34.51;19.44;99826.13;5050476;28;20031;-45
2023/09/30 11:09:21;;;;;;;5.28;3.80;;;;;;;34.83;18.48;99820.50;5050721;28;20025;-45
2023/09/30 11:11:50;;;;;;;6.30;3.58;;;;;;;34.60;18.23;99814.88;5051927;28;20017;-44
2023/09/30 11:14:30;;;;;;;9.32;3.65;;;;;;;35.05;18.19;99810.63;5054228;28;20025;-45
2023/09/30 11:16:58;;;;;;;8.25;3.70;;;;;;;34.87;18.41;99813.06;5054371;28;20024;-42
2023/09/30 11:19:24;;;;;;;7.20;3.83;;;;;;;34.11;18.95;99807.91;5054407;28;20059;-43
2023/09/30 11:21:52;;;;;;;6.35;3.67;;;;;;;33.28;19.46;99805.13;5054055;28;20040;-43
2023/09/30 11:24:18;;;;;;;8.35;3.67;;;;;;;34.17;18.98;99806.50;5054139;28;20444;-44
2023/09/30 11:26:47;;;;;;;5.55;3.78;;;;;;;34.98;19.27;99797.47;5054308;28;20024;-43
2023/09/30 11:29:17;;;;;;;10.63;3.42;;;;;;;35.57;18.25;99792.56;5053987;28;20068;-43
2023/09/30 11:31:45;;;;;;;6.90;3.58;;;;;;;36.05;17.75;99800.41;5055083;28;20071;-42